createdAt,value
2022-07-25T00:00:30.147Z,21.47
2022-07-25T00:04:33.524Z,21.46
2022-07-25T00:08:39.068Z,21.19
2022-07-25T00:12:43.245Z,21.01
2022-07-25T00:16:47.725Z,20.94
2022-07-25T00:20:51.281Z,20.87
2022-07-25T00:24:54.710Z,20.79
2022-07-25T00:28:57.762Z,20.71
2022-07-25T00:33:03.017Z,20.57
2022-07-25T00:37:06.464Z,20.49
2022-07-25T00:41:09.702Z,20.33
2022-07-25T00:45:13.033Z,20.29
2022-07-25T00:49:17.542Z,20.21
2022-07-25T00:53:20.769Z,20.13
2022-07-25T00:57:24.186Z,20.21
2022-07-25T01:01:27.532Z,20.20
2022-07-25T01:05:33.062Z,20.31
2022-07-25T01:09:36.584Z,20.31
2022-07-25T01:13:40.193Z,20.28
2022-07-25T01:17:43.301Z,20.33
2022-07-25T01:21:48.355Z,20.37
2022-07-25T01:25:51.412Z,20.51
2022-07-25T01:29:54.641Z,20.58
2022-07-25T01:33:57.810Z,20.69
2022-07-25T01:38:02.385Z,20.65
2022-07-25T01:42:06.175Z,20.62
2022-07-25T01:46:09.273Z,20.52
2022-07-25T01:50:12.500Z,20.50
2022-07-25T01:54:16.886Z,20.43
2022-07-25T01:58:20.237Z,20.38
2022-07-25T02:02:24.767Z,20.38
2022-07-25T02:12:22.854Z,20.43
2022-07-25T02:16:29.126Z,20.44
2022-07-25T02:20:32.772Z,20.47
2022-07-25T02:24:37.211Z,20.42
2022-07-25T02:28:42.176Z,20.35
2022-07-25T02:32:45.292Z,20.34
2022-07-25T02:36:48.662Z,20.27
2022-07-25T02:40:53.320Z,20.25
2022-07-25T02:44:58.255Z,20.24
2022-07-25T02:49:01.678Z,20.25
2022-07-25T02:53:05.635Z,20.24
2022-07-25T02:57:09.101Z,20.17
2022-07-25T03:01:14.290Z,20.15
2022-07-25T03:05:18.521Z,20.05
2022-07-25T03:09:21.622Z,20.00
2022-07-25T03:13:25.082Z,19.99
2022-07-25T03:17:30.701Z,19.93
2022-07-25T03:21:33.797Z,19.91
2022-07-25T03:25:38.004Z,19.79
2022-07-25T03:29:41.199Z,19.79
2022-07-25T03:33:46.799Z,19.77
2022-07-25T03:37:49.900Z,19.83
2022-07-25T03:41:55.645Z,19.71
2022-07-25T03:45:58.847Z,19.71
2022-07-25T03:50:04.185Z,19.85
2022-07-25T03:54:08.991Z,19.91
2022-07-25T03:58:12.359Z,19.99
2022-07-25T04:02:15.680Z,19.94
2022-07-25T04:06:20.580Z,19.89
2022-07-25T04:10:23.957Z,19.99
2022-07-25T04:14:27.073Z,20.04
2022-07-25T04:18:30.193Z,20.12
2022-07-25T04:22:40.975Z,20.13
2022-07-25T04:26:45.281Z,20.13
2022-07-25T04:30:48.667Z,20.12
2022-07-25T04:34:52.405Z,20.21
2022-07-25T04:38:56.815Z,20.32
2022-07-25T04:43:00.083Z,20.49
2022-07-25T04:47:03.214Z,20.39
2022-07-25T04:51:07.745Z,20.45
2022-07-25T04:55:13.074Z,20.45
2022-07-25T04:59:16.131Z,20.74
2022-07-25T05:03:19.248Z,21.10
2022-07-25T05:07:22.331Z,21.59
2022-07-25T05:11:26.789Z,21.92
2022-07-25T05:15:30.077Z,22.20
2022-07-25T05:19:33.294Z,22.46
2022-07-25T05:23:36.344Z,22.61
2022-07-25T05:27:42.101Z,22.59
2022-07-25T05:31:45.209Z,22.69
2022-07-25T05:35:48.320Z,22.74
2022-07-25T05:39:51.367Z,22.95
2022-07-25T05:43:55.768Z,23.04
2022-07-25T05:47:58.895Z,23.13
2022-07-25T05:52:02.269Z,23.33
2022-07-25T05:56:06.178Z,23.54
2022-07-25T06:00:11.952Z,23.90
2022-07-25T06:04:14.993Z,24.14
2022-07-25T06:08:18.099Z,24.40
2022-07-25T06:12:21.508Z,24.36
2022-07-25T06:16:28.992Z,24.60
2022-07-25T06:20:32.032Z,24.55
2022-07-25T06:24:35.119Z,24.78
2022-07-25T06:28:38.270Z,24.91
2022-07-25T06:32:42.598Z,25.52
2022-07-25T06:36:45.682Z,25.90
2022-07-25T06:40:48.755Z,26.04
2022-07-25T06:44:51.780Z,26.01
2022-07-25T06:48:56.268Z,26.16
2022-07-25T06:52:59.332Z,26.27
2022-07-25T06:57:02.375Z,26.31
2022-07-25T07:01:05.584Z,26.27
2022-07-25T07:05:10.690Z,26.19
2022-07-25T07:09:13.797Z,26.24
2022-07-25T07:13:23.699Z,26.24
2022-07-25T07:17:27.339Z,26.05
2022-07-25T07:21:31.704Z,25.81
2022-07-25T07:25:35.274Z,25.71
2022-07-25T07:29:38.444Z,25.61
2022-07-25T07:33:41.707Z,25.47
2022-07-25T07:37:46.690Z,25.32
2022-07-25T07:41:49.887Z,25.19
2022-07-25T07:45:52.944Z,25.20
2022-07-25T07:49:56.082Z,25.23
2022-07-25T07:54:17.149Z,25.02
2022-07-25T07:58:20.683Z,25.08
2022-07-25T08:02:26.958Z,24.88
2022-07-25T08:06:30.382Z,24.95
2022-07-25T08:10:36.922Z,24.78
2022-07-25T08:14:40.017Z,24.79
2022-07-25T08:18:43.165Z,24.69
2022-07-25T08:22:49.247Z,24.64
2022-07-25T08:26:55.355Z,24.75
2022-07-25T08:30:59.427Z,24.62
2022-07-25T08:35:04.374Z,24.81
2022-07-25T08:39:09.143Z,25.42
2022-07-25T08:43:15.154Z,25.36
2022-07-25T08:47:19.647Z,26.59
2022-07-25T08:51:23.051Z,26.41
2022-07-25T08:55:26.266Z,26.39
2022-07-25T08:59:32.059Z,26.76
2022-07-25T09:03:36.527Z,26.88
2022-07-25T09:07:40.904Z,27.09
2022-07-25T09:11:44.489Z,26.31
2022-07-25T09:15:50.597Z,26.53
2022-07-25T09:19:55.188Z,26.37
2022-07-25T09:24:09.884Z,26.26
2022-07-25T09:28:15.288Z,25.77
2022-07-25T09:32:22.177Z,25.93
2022-07-25T09:36:25.487Z,25.96
2022-07-25T09:40:28.728Z,25.99
2022-07-25T09:44:32.401Z,25.98
2022-07-25T09:48:37.526Z,26.49
2022-07-25T09:52:40.852Z,26.68
2022-07-25T09:56:43.916Z,27.69
2022-07-25T10:00:47.461Z,27.32
2022-07-25T10:05:05.483Z,27.67
2022-07-25T10:09:12.967Z,27.35
2022-07-25T10:13:18.389Z,27.35
2022-07-25T10:17:22.746Z,28.45
2022-07-25T10:21:29.412Z,29.01
2022-07-25T10:25:32.515Z,28.59
2022-07-25T10:29:36.248Z,28.34
2022-07-25T10:33:42.743Z,28.43
2022-07-25T10:37:49.297Z,29.86
2022-07-25T10:41:54.357Z,30.03
2022-07-25T10:46:00.202Z,29.83
2022-07-25T10:50:22.014Z,28.65
2022-07-25T10:54:35.131Z,29.10
2022-07-25T10:58:50.239Z,29.63
2022-07-25T11:02:57.239Z,29.55
2022-07-25T11:07:09.513Z,30.54
2022-07-25T11:11:14.323Z,30.37
2022-07-25T11:15:17.570Z,30.13
2022-07-25T11:19:22.670Z,29.85
2022-07-25T11:23:25.753Z,29.85
2022-07-25T11:27:32.050Z,30.07
2022-07-25T11:31:35.845Z,29.90
2022-07-25T11:35:39.155Z,28.78
2022-07-25T11:39:44.059Z,29.24
2022-07-25T11:43:51.524Z,29.28
2022-07-25T11:48:04.568Z,29.96
2022-07-25T11:52:07.829Z,28.92
2022-07-25T11:56:41.272Z,28.43
2022-07-25T12:00:45.433Z,28.64
2022-07-25T12:04:55.668Z,28.52
2022-07-25T12:08:58.722Z,28.55
2022-07-25T12:13:04.247Z,29.05
2022-07-25T12:17:09.344Z,28.42
2022-07-25T12:21:13.901Z,27.67
2022-07-25T12:25:17.819Z,28.89
2022-07-25T12:29:21.159Z,30.00
2022-07-25T12:33:25.644Z,29.56
2022-07-25T12:37:28.929Z,29.21
2022-07-25T12:41:32.478Z,30.14
2022-07-25T12:45:35.624Z,29.28
2022-07-25T12:49:40.267Z,30.68
2022-07-25T12:53:43.296Z,28.90
2022-07-25T12:57:46.977Z,29.00
2022-07-25T13:01:50.209Z,29.22
2022-07-25T13:05:54.816Z,28.83
2022-07-25T13:09:57.863Z,29.04
2022-07-25T13:14:01.081Z,28.67
2022-07-25T13:18:04.979Z,28.66
2022-07-25T13:22:09.401Z,28.07
2022-07-25T13:26:12.543Z,27.86
2022-07-25T13:30:15.879Z,28.13
2022-07-25T13:34:19.173Z,27.17
2022-07-25T13:38:23.709Z,27.13
2022-07-25T13:42:26.911Z,26.93
2022-07-25T13:46:29.998Z,26.50
2022-07-25T13:50:33.187Z,26.13
2022-07-25T13:54:37.647Z,26.56
2022-07-25T13:58:41.689Z,26.92
2022-07-25T14:02:44.962Z,28.05
2022-07-25T14:06:51.988Z,27.54
2022-07-25T14:10:56.588Z,27.16
2022-07-25T14:14:59.940Z,27.60
2022-07-25T14:19:03.529Z,27.80
2022-07-25T14:23:06.737Z,26.12
2022-07-25T14:27:11.953Z,27.23
2022-07-25T14:31:15.214Z,27.89
2022-07-25T14:35:18.490Z,27.10
2022-07-25T14:39:21.619Z,26.32
2022-07-25T14:43:26.398Z,25.58
2022-07-25T14:47:29.573Z,25.80
2022-07-25T14:51:33.062Z,25.21
2022-07-25T14:55:37.506Z,25.42
2022-07-25T14:59:42.147Z,25.41
2022-07-25T15:03:45.782Z,25.48
2022-07-25T15:07:48.833Z,25.55
2022-07-25T15:13:20.551Z,26.28
2022-07-25T15:17:20.386Z,27.23
2022-07-25T15:21:23.408Z,27.43
2022-07-25T15:29:49.511Z,26.62
2022-07-25T15:33:55.332Z,25.88
2022-07-25T15:37:58.963Z,26.58
2022-07-25T15:42:02.190Z,27.63
2022-07-25T15:46:05.387Z,28.04
2022-07-25T15:50:10.564Z,28.06
2022-07-25T15:54:13.629Z,27.78
2022-07-25T15:58:16.928Z,26.10
2022-07-25T16:02:20.109Z,25.29
2022-07-25T16:06:24.922Z,25.29
2022-07-25T16:10:29.309Z,25.47
2022-07-25T16:14:32.556Z,25.94
2022-07-25T16:18:35.728Z,25.64
2022-07-25T16:22:40.515Z,25.24
2022-07-25T16:26:43.792Z,25.27
2022-07-25T16:30:46.997Z,25.34
2022-07-25T16:34:50.216Z,25.56
2022-07-25T16:38:55.053Z,25.37
2022-07-25T16:42:59.355Z,25.93
2022-07-25T16:47:02.529Z,26.51
2022-07-25T16:51:06.168Z,26.98
2022-07-25T16:55:11.141Z,26.84
2022-07-25T16:59:14.581Z,27.57
2022-07-25T17:03:17.890Z,26.94
2022-07-25T17:07:21.161Z,26.59
2022-07-25T17:11:25.675Z,26.04
2022-07-25T17:15:28.829Z,25.35
2022-07-25T17:19:33.889Z,25.47
2022-07-25T17:23:36.967Z,25.56
2022-07-25T17:27:41.424Z,25.35
2022-07-25T17:31:44.724Z,24.79
2022-07-25T17:35:47.932Z,25.03
2022-07-25T17:39:51.374Z,24.81
2022-07-25T17:43:55.829Z,24.81
2022-07-25T17:47:59.047Z,25.02
2022-07-25T17:52:02.217Z,25.15
2022-07-25T17:56:07.523Z,24.86
2022-07-25T18:00:14.303Z,24.78
2022-07-25T18:04:17.527Z,25.32
2022-07-25T18:08:21.830Z,25.66
2022-07-25T18:12:29.277Z,25.51
2022-07-25T18:16:34.260Z,25.49
2022-07-25T18:20:39.952Z,24.88
2022-07-25T18:24:43.036Z,24.52
2022-07-25T18:28:46.271Z,24.72
2022-07-25T18:32:50.667Z,24.64
2022-07-25T18:36:53.826Z,23.91
2022-07-25T18:41:12.585Z,23.87
2022-07-25T18:45:20.318Z,23.52
2022-07-25T18:49:27.201Z,23.19
2022-07-25T18:53:30.735Z,23.07
2022-07-25T18:57:35.235Z,22.87
2022-07-25T19:01:40.940Z,22.71
2022-07-25T19:05:45.569Z,22.54
2022-07-25T19:09:49.980Z,22.51
2022-07-25T19:13:53.313Z,22.47
2022-07-25T19:17:57.378Z,22.36
2022-07-25T19:22:02.733Z,22.29
2022-07-25T19:26:06.347Z,22.26
2022-07-25T19:30:15.267Z,22.23
2022-07-25T19:34:20.389Z,22.23
2022-07-25T19:38:25.242Z,22.25
2022-07-25T19:42:28.358Z,22.24
2022-07-25T19:46:34.229Z,22.20
2022-07-25T19:50:37.454Z,22.17
2022-07-25T19:54:42.149Z,22.13
2022-07-25T19:58:45.482Z,22.03
2022-07-25T20:02:48.683Z,21.96
2022-07-25T20:06:53.842Z,21.87
2022-07-25T20:10:58.390Z,21.81
2022-07-25T20:15:01.701Z,21.63
2022-07-25T20:19:05.837Z,21.58
2022-07-25T20:23:09.189Z,21.62
2022-07-25T20:27:13.678Z,21.59
2022-07-25T20:31:17.691Z,21.62
2022-07-25T20:35:21.166Z,21.62
2022-07-25T20:39:26.419Z,21.56
2022-07-25T20:43:33.575Z,21.52
2022-07-25T20:47:36.678Z,21.47
2022-07-25T20:51:40.818Z,21.43
2022-07-25T20:55:44.002Z,21.29
2022-07-25T20:59:48.505Z,21.11
2022-07-25T21:03:51.675Z,21.12
2022-07-25T21:07:55.191Z,20.98
2022-07-25T21:11:58.592Z,21.08
2022-07-25T21:16:03.150Z,21.12
2022-07-25T21:20:07.495Z,21.13
2022-07-25T21:24:11.984Z,21.08
2022-07-25T21:28:15.357Z,20.98
2022-07-25T21:32:21.457Z,20.88
2022-07-25T21:36:24.615Z,20.79
2022-07-25T21:40:28.658Z,20.62
2022-07-25T21:44:32.209Z,20.57
2022-07-25T21:48:54.420Z,20.37
2022-07-25T21:52:58.008Z,20.30
2022-07-25T21:57:01.394Z,20.25
2022-07-25T22:01:04.949Z,20.15
2022-07-25T22:05:11.104Z,20.02
2022-07-25T22:09:14.222Z,20.00
2022-07-25T22:13:17.389Z,19.85
2022-07-25T22:17:20.470Z,19.70
2022-07-25T22:21:24.841Z,19.72
2022-07-25T22:25:29.502Z,19.67
2022-07-25T22:29:32.644Z,19.67
2022-07-25T22:33:37.948Z,19.74
2022-07-25T22:37:42.430Z,19.76
2022-07-25T22:41:45.824Z,19.74
2022-07-25T22:45:48.956Z,19.74
2022-07-25T22:49:51.973Z,19.75
2022-07-25T22:53:56.694Z,19.74
2022-07-25T22:57:59.782Z,19.67
2022-07-25T23:02:02.999Z,19.55
2022-07-25T23:06:06.247Z,19.50
2022-07-25T23:10:11.480Z,19.39
2022-07-25T23:14:14.627Z,19.23
2022-07-25T23:18:17.691Z,19.14
2022-07-25T23:22:23.330Z,19.03
2022-07-25T23:26:27.714Z,19.03
2022-07-25T23:30:30.717Z,18.87
2022-07-25T23:34:33.893Z,18.85
2022-07-25T23:38:37.146Z,18.74
2022-07-25T23:42:41.660Z,18.66
2022-07-25T23:46:44.967Z,18.53
2022-07-25T23:50:48.056Z,18.48
2022-07-25T23:54:51.259Z,18.49
2022-07-25T23:58:55.706Z,18.35
